Time;durP1;ratioP1;P1;durP2;ratioP2;P2;SDS_P1;SDS_P2;PMS_P1;PMS_P2;Temp;Humidity;BMP_temperature;BMP_pressure;BME280_temperature;BME280_humidity;BME280_pressure;Samples;Min_cycle;Max_cycle;Signal;HPM_P1;HPM_P2
2021/05/14 00:01:52;;;;;;;0.93;0.80;;;;;;;7.78;71.28;95721.44;5088911;28;20048;-76
2021/05/14 00:04:19;;;;;;;0.80;0.80;;;;;;;7.76;71.33;95721.66;5087046;28;20074;-77
2021/05/14 00:06:47;;;;;;;1.27;0.73;;;;;;;7.72;71.50;95716.06;5083527;28;20044;-76
2021/05/14 00:09:14;;;;;;;1.17;1.08;;;;;;;7.71;71.57;95717.09;5093369;28;20473;-77
2021/05/14 00:11:41;;;;;;;0.80;0.80;;;;;;;7.75;71.82;95722.69;5094022;28;20050;-77
2021/05/14 00:14:08;;;;;;;1.00;0.90;;;;;;;7.76;71.91;95726.88;5092173;28;20036;-77
2021/05/14 00:16:34;;;;;;;0.85;0.85;;;;;;;7.76;71.84;95718.25;5090172;28;20035;-77
2021/05/14 00:19:01;;;;;;;0.85;0.85;;;;;;;7.76;71.91;95715.63;5093535;28;20047;-77
2021/05/14 00:21:28;;;;;;;0.80;0.80;;;;;;;7.75;71.99;95725.28;5094325;28;20404;-77
2021/05/14 00:23:54;;;;;;;0.70;0.70;;;;;;;7.74;72.06;95718.44;5093111;28;20048;-77
2021/05/14 00:26:21;;;;;;;0.90;0.90;;;;;;;7.70;72.13;95720.69;5093455;28;20044;-77
2021/05/14 00:28:48;;;;;;;0.90;0.90;;;;;;;7.68;72.19;95714.88;5094228;28;20036;-77
2021/05/14 00:31:15;;;;;;;0.90;0.90;;;;;;;7.65;72.16;95719.78;5093896;28;20079;-77
2021/05/14 00:33:42;;;;;;;0.93;0.90;;;;;;;7.60;72.22;95712.59;5082223;28;20048;-77
2021/05/14 00:36:08;;;;;;;6.53;1.52;;;;;;;7.59;72.20;95720.63;5084447;28;20385;-77
2021/05/14 00:38:35;;;;;;;0.90;0.90;;;;;;;7.53;72.28;95728.28;5092511;28;20051;-77
2021/05/14 00:41:02;;;;;;;0.70;0.70;;;;;;;7.49;72.25;95721.91;5093685;28;20043;-77
2021/05/14 00:43:29;;;;;;;1.02;0.93;;;;;;;7.45;72.28;95723.34;5083579;28;20041;-77
2021/05/14 00:45:56;;;;;;;0.70;0.70;;;;;;;7.43;72.42;95724.59;5082233;28;20039;-77
2021/05/14 00:48:22;;;;;;;1.20;1.10;;;;;;;7.38;72.56;95714.00;5091870;28;20044;-77
2021/05/14 00:50:48;;;;;;;0.77;0.77;;;;;;;7.33;72.48;95719.88;5085027;28;20036;-77
2021/05/14 00:53:14;;;;;;;0.82;0.82;;;;;;;7.25;72.66;95717.53;5092311;28;20052;-77
2021/05/14 00:55:40;;;;;;;3.53;0.90;;;;;;;7.21;72.73;95717.16;5075382;28;20036;-77
2021/05/14 00:58:07;;;;;;;0.80;0.80;;;;;;;7.21;72.76;95721.59;5093231;28;20377;-76
2021/05/14 01:00:33;;;;;;;0.70;0.70;;;;;;;7.17;72.79;95715.22;5093634;28;20047;-77
2021/05/14 01:02:59;;;;;;;0.93;0.90;;;;;;;7.17;72.95;95715.22;5088667;28;20044;-77
2021/05/14 01:05:25;;;;;;;1.05;1.00;;;;;;;7.15;72.94;95720.63;5091835;28;20515;-77
2021/05/14 01:07:54;;;;;;;1.45;0.70;;;;;;;7.16;73.11;95717.03;5093345;28;20040;-77
2021/05/14 01:10:21;;;;;;;0.80;0.80;;;;;;;7.14;73.03;95716.44;5075564;28;20056;-77
2021/05/14 01:12:48;;;;;;;0.70;0.70;;;;;;;7.14;73.07;95720.84;5093803;28;20040;-77
2021/05/14 01:15:15;;;;;;;0.90;0.90;;;;;;;7.13;73.28;95714.03;5093568;28;20036;-77
2021/05/14 01:17:41;;;;;;;0.82;0.82;;;;;;;7.09;73.18;95717.06;5085677;28;20032;-77
2021/05/14 01:20:08;;;;;;;1.45;1.20;;;;;;;7.06;73.36;95717.50;5089783;28;20457;-77
2021/05/14 01:22:35;;;;;;;0.80;0.80;;;;;;;7.08;73.12;95706.88;5082977;28;20036;-77
2021/05/14 01:25:02;;;;;;;1.05;1.00;;;;;;;7.05;73.44;95699.44;5082408;28;20032;-77
2021/05/14 01:27:28;;;;;;;1.35;0.85;;;;;;;7.04;73.43;95703.88;5091907;28;20038;-77
2021/05/14 01:29:55;;;;;;;0.93;0.70;;;;;;;7.02;73.36;95697.28;5092925;28;20044;-77
2021/05/14 01:32:21;;;;;;;1.40;1.08;;;;;;;7.02;73.52;95699.91;5088056;28;20461;-77
2021/05/14 01:34:47;;;;;;;1.70;0.82;;;;;;;7.00;73.23;95704.53;5088895;28;20051;-77
2021/05/14 01:37:13;;;;;;;0.80;0.60;;;;;;;6.99;73.44;95700.31;5092771;28;20098;-77
2021/05/14 01:39:40;;;;;;;0.75;0.75;;;;;;;6.98;73.60;95703.94;5093000;28;20044;-77
2021/05/14 01:42:06;;;;;;;1.33;1.00;;;;;;;6.96;73.67;95696.31;5086974;28;20039;-77
2021/05/14 01:44:32;;;;;;;1.25;1.02;;;;;;;6.94;73.66;95687.91;5088908;28;20039;-77
2021/05/14 01:46:58;;;;;;;2.35;1.20;;;;;;;6.91;73.59;95693.56;5080011;28;20063;-77
2021/05/14 01:49:25;;;;;;;1.17;1.17;;;;;;;6.89;73.54;95698.19;5093309;28;20028;-77
2021/05/14 01:51:51;;;;;;;1.38;0.95;;;;;;;6.85;73.60;95697.81;5091429;28;20457;-77
2021/05/14 01:54:18;;;;;;;1.20;1.10;;;;;;;6.81;73.62;95699.25;5084901;28;20395;-77
2021/05/14 01:56:49;;;;;;;0.93;0.93;;;;;;;6.78;73.83;95697.06;5089177;28;20040;-77
2021/05/14 01:59:15;;;;;;;1.30;1.20;;;;;;;6.76;73.79;95701.72;5092401;28;20043;-77
2021/05/14 02:01:42;;;;;;;1.10;1.00;;;;;;;6.73;73.67;95698.72;5081155;28;20067;-77
2021/05/14 02:04:09;;;;;;;1.17;1.13;;;;;;;6.71;73.73;95698.91;5087383;28;20056;-77
2021/05/14 02:06:36;;;;;;;1.10;0.98;;;;;;;6.68;73.58;95700.16;5088308;28;20032;-77
2021/05/14 02:09:04;;;;;;;1.05;0.95;;;;;;;6.65;73.71;95705.75;5092259;28;20381;-77
2021/05/14 02:11:31;;;;;;;1.35;0.85;;;;;;;6.62;73.84;95703.59;5092178;28;20468;-77
2021/05/14 02:13:58;;;;;;;0.95;0.93;;;;;;;6.61;73.86;95703.78;5092861;28;20039;-77
2021/05/14 02:16:25;;;;;;;1.13;1.10;;;;;;;6.60;73.97;95705.59;5084864;28;20033;-77
2021/05/14 02:18:51;;;;;;;1.95;1.17;;;;;;;6.60;73.93;95712.63;5088325;28;20033;-77
2021/05/14 02:21:17;;;;;;;1.05;1.00;;;;;;;6.58;74.06;95706.84;5083803;28;20044;-76
2021/05/14 02:23:44;;;;;;;1.50;1.00;;;;;;;6.54;73.83;95705.66;5082518;28;20392;-77
2021/05/14 02:26:10;;;;;;;1.27;1.17;;;;;;;6.50;73.81;95715.69;5088745;28;20051;-77
2021/05/14 02:28:36;;;;;;;1.30;1.20;;;;;;;6.46;73.84;95704.09;5087295;28;20041;-77
2021/05/14 02:31:03;;;;;;;1.10;1.10;;;;;;;6.42;73.93;95697.72;5088933;28;20048;-77
2021/05/14 02:33:29;;;;;;;1.35;1.27;;;;;;;6.37;73.80;95705.38;5086948;28;20378;-77
2021/05/14 02:35:56;;;;;;;1.13;1.00;;;;;;;6.34;73.93;95705.75;5092334;28;20381;-77
2021/05/14 02:38:22;;;;;;;2.08;1.20;;;;;;;6.33;73.95;95707.56;5091156;28;20040;-77
2021/05/14 02:40:48;;;;;;;1.00;1.00;;;;;;;6.32;73.94;95699.97;5081850;28;20424;-77
2021/05/14 02:43:15;;;;;;;1.13;1.02;;;;;;;6.30;74.34;95706.19;5085064;28;20040;-76
2021/05/14 02:45:41;;;;;;;0.80;0.80;;;;;;;6.30;74.23;95703.59;5085675;28;20042;-77
2021/05/14 02:48:08;;;;;;;1.00;0.90;;;;;;;6.29;74.26;95709.00;5084522;28;20426;-77
2021/05/14 02:50:35;;;;;;;3.00;1.15;;;;;;;6.26;74.13;95706.81;5087344;28;20067;-77
2021/05/14 02:53:01;;;;;;;1.00;0.90;;;;;;;6.24;74.15;95701.81;5081627;28;20040;-77
2021/05/14 02:55:28;;;;;;;0.70;0.70;;;;;;;6.24;74.20;95701.03;5082081;28;20464;-77
2021/05/14 02:57:54;;;;;;;0.80;0.80;;;;;;;6.22;74.18;95696.03;5091489;28;20064;-77
2021/05/14 03:00:22;;;;;;;0.70;0.70;;;;;;;6.22;74.28;95697.84;5092160;28;20040;-77
2021/05/14 03:02:49;;;;;;;0.82;0.82;;;;;;;6.19;74.13;95690.44;5090835;28;20051;-77
2021/05/14 03:05:15;;;;;;;0.90;0.90;;;;;;;6.16;74.28;95691.66;5088398;28;20052;-77
2021/05/14 03:07:41;;;;;;;1.05;0.98;;;;;;;6.14;74.35;95693.66;5087741;28;20043;-77
2021/05/14 03:10:08;;;;;;;1.00;0.90;;;;;;;6.11;74.31;95694.09;5077944;28;20469;-77
2021/05/14 03:12:34;;;;;;;1.08;0.90;;;;;;;6.09;74.39;95691.69;5091243;28;20032;-77
2021/05/14 03:15:01;;;;;;;0.98;0.88;;;;;;;6.09;74.39;95690.91;5077007;28;20040;-77
2021/05/14 03:17:27;;;;;;;1.00;0.90;;;;;;;6.06;74.45;95692.09;5095590;28;20047;-77
2021/05/14 03:19:53;;;;;;;0.85;0.85;;;;;;;6.03;74.38;95689.91;5086456;28;20059;-77
2021/05/14 03:22:19;;;;;;;2.50;1.17;;;;;;;6.03;74.48;95691.72;5095120;28;20058;-77
2021/05/14 03:24:45;;;;;;;0.80;0.80;;;;;;;6.03;74.46;95689.91;5095111;28;20106;-77
2021/05/14 03:27:11;;;;;;;0.93;0.93;;;;;;;6.03;74.64;95694.31;5094924;28;20495;-76
2021/05/14 03:29:38;;;;;;;0.63;0.63;;;;;;;6.03;74.65;95702.13;5078475;28;20044;-77
2021/05/14 03:32:04;;;;;;;1.70;1.00;;;;;;;6.03;74.76;95694.31;5089807;28;20041;-77
2021/05/14 03:34:31;;;;;;;0.80;0.80;;;;;;;6.02;74.66;95705.72;5089487;28;20059;-77
2021/05/14 03:36:57;;;;;;;1.02;1.02;;;;;;;6.01;74.59;95696.34;5095364;28;20052;-77
2021/05/14 03:39:25;;;;;;;1.13;1.13;;;;;;;6.00;74.55;95695.50;5094642;28;20040;-77
2021/05/14 03:42:15;;;;;;;0.80;0.80;;;;;;;5.97;74.58;95688.13;5087381;28;20055;-77
2021/05/14 03:44:38;;;;;;;0.93;0.93;;;;;;;5.96;74.62;95696.16;5091899;28;20044;-77
2021/05/14 03:47:05;;;;;;;0.90;0.90;;;;;;;5.94;74.66;95693.72;5095107;28;20044;-77
2021/05/14 03:49:37;;;;;;;0.90;0.90;;;;;;;5.92;74.63;95687.91;5081937;28;20489;-77
2021/05/14 03:52:07;;;;;;;1.95;1.02;;;;;;;5.87;74.35;95688.53;5087752;28;20037;-77
2021/05/14 03:54:34;;;;;;;0.90;0.90;;;;;;;5.83;74.43;95694.38;5089869;28;20032;-77
2021/05/14 03:57:00;;;;;;;0.77;0.77;;;;;;;5.78;74.55;95700.19;5089046;28;20045;-77
2021/05/14 03:59:27;;;;;;;0.70;0.70;;;;;;;5.74;74.33;95695.59;5080454;28;20048;-77
2021/05/14 04:01:54;;;;;;;0.77;0.77;;;;;;;5.71;74.51;95691.59;5080094;28;20048;-77
2021/05/14 04:04:22;;;;;;;2.63;0.80;;;;;;;5.68;74.48;95692.03;5084392;28;20038;-77
2021/05/14 04:06:48;;;;;;;1.48;1.00;;;;;;;5.66;74.52;95679.22;5082064;28;20036;-77
2021/05/14 04:09:18;;;;;;;0.60;0.60;;;;;;;5.63;74.34;95681.44;5095020;28;20106;-77
2021/05/14 04:14:33;;;;;;;0.70;0.65;;;;;;;5.58;74.59;95684.63;5094049;28;20048;-77
2021/05/14 04:17:04;;;;;;;0.77;0.77;;;;;;;5.57;74.84;95683.06;5094656;28;20040;-77
2021/05/14 04:19:31;;;;;;;1.23;0.80;;;;;;;5.58;74.82;95689.03;5092644;28;20491;-77
2021/05/14 04:21:59;;;;;;;0.82;0.80;;;;;;;5.59;74.70;95685.47;5085294;28;20079;-77
2021/05/14 04:24:26;;;;;;;1.00;0.90;;;;;;;5.59;74.80;95688.84;5092311;28;20503;-77
2021/05/14 04:26:55;;;;;;;0.90;0.90;;;;;;;5.61;74.73;95683.44;5075268;28;20047;-77
2021/05/14 04:29:21;;;;;;;0.80;0.80;;;;;;;5.72;74.90;95695.03;5089941;28;20469;-77
2021/05/14 04:31:48;;;;;;;1.30;0.95;;;;;;;5.89;75.00;95694.34;5087979;28;20032;-77
2021/05/14 04:34:16;;;;;;;0.75;0.75;;;;;;;6.15;75.08;95697.84;5089256;28;20048;-77
2021/05/14 04:36:42;;;;;;;0.80;0.80;;;;;;;6.44;75.09;95686.06;5093705;28;20045;-77
2021/05/14 04:39:10;;;;;;;0.80;0.80;;;;;;;6.77;74.78;95695.47;5094349;28;20047;-77
2021/05/14 04:41:38;;;;;;;1.55;0.60;;;;;;;7.07;74.43;95685.19;5093365;28;20133;-77
2021/05/14 04:44:05;;;;;;;1.58;0.90;;;;;;;7.41;74.20;95682.28;5093736;28;20036;-77
2021/05/14 04:46:32;;;;;;;1.20;1.10;;;;;;;7.79;73.94;95689.09;5085761;28;20464;-76
2021/05/14 04:48:58;;;;;;;1.75;0.90;;;;;;;8.15;73.46;95683.03;5082924;28;20469;-77
2021/05/14 04:51:28;;;;;;;0.90;0.90;;;;;;;8.49;72.94;95675.56;5085659;28;20044;-77
2021/05/14 04:53:56;;;;;;;0.60;0.60;;;;;;;8.86;72.35;95676.22;5094003;28;20043;-76
2021/05/14 04:56:22;;;;;;;0.95;0.90;;;;;;;9.24;71.92;95676.78;5085238;28;20048;-76
2021/05/14 04:58:48;;;;;;;0.55;0.55;;;;;;;9.60;71.46;95685.44;5087133;28;20036;-77
2021/05/14 05:01:16;;;;;;;0.90;0.90;;;;;;;9.87;70.25;95683.88;5093567;28;20056;-77
2021/05/14 05:03:44;;;;;;;0.80;0.80;;;;;;;10.16;69.95;95694.38;5093336;28;20047;-76
2021/05/14 05:06:10;;;;;;;1.00;0.90;;;;;;;10.34;68.81;95701.28;5092997;28;20028;-76
2021/05/14 05:08:37;;;;;;;0.77;0.63;;;;;;;10.48;68.48;95702.59;5093560;28;20043;-76
2021/05/14 05:11:03;;;;;;;0.70;0.70;;;;;;;10.75;67.95;95707.25;5089015;28;20408;-76
2021/05/14 05:13:29;;;;;;;1.40;0.73;;;;;;;10.80;66.81;95704.72;5092671;28;20048;-76
2021/05/14 05:15:55;;;;;;;0.80;0.80;;;;;;;10.91;66.45;95703.06;5091703;28;20051;-76
2021/05/14 05:18:21;;;;;;;0.93;0.93;;;;;;;10.95;65.87;95710.22;5082077;28;20488;-78
2021/05/14 05:20:48;;;;;;;1.00;0.90;;;;;;;10.88;65.39;95719.28;5088596;28;20040;-78
2021/05/14 05:23:14;;;;;;;0.80;0.73;;;;;;;11.09;65.35;95713.31;5087547;28;20056;-77
2021/05/14 05:25:40;;;;;;;0.80;0.80;;;;;;;11.17;64.56;95719.97;5089894;28;20059;-76
2021/05/14 05:28:06;;;;;;;0.77;0.75;;;;;;;11.33;64.06;95724.44;5089599;28;20040;-77
2021/05/14 05:30:32;;;;;;;0.88;0.88;;;;;;;11.45;63.65;95726.19;5083711;28;20032;-77
2021/05/14 05:33:00;;;;;;;0.75;0.75;;;;;;;11.61;62.95;95719.31;5090376;28;20043;-77
2021/05/14 05:35:26;;;;;;;1.10;0.82;;;;;;;11.89;62.51;95719.19;5084070;28;20048;-78
2021/05/14 05:37:54;;;;;;;0.75;0.70;;;;;;;11.85;61.70;95719.91;5092719;28;20424;-76
2021/05/14 05:40:20;;;;;;;1.15;0.90;;;;;;;11.53;60.76;95705.56;5092924;28;20051;-77
2021/05/14 05:42:47;;;;;;;0.60;0.60;;;;;;;11.02;60.40;95706.63;5090010;28;20059;-77
2021/05/14 05:45:14;;;;;;;0.80;0.80;;;;;;;10.55;60.64;95720.81;5091182;28;20476;-77
2021/05/14 05:47:41;;;;;;;0.95;0.75;;;;;;;10.16;61.10;95712.72;5089016;28;20059;-77
2021/05/14 05:50:07;;;;;;;1.85;1.02;;;;;;;9.81;61.50;95718.84;5086663;28;20269;-77
2021/05/14 05:52:34;;;;;;;0.68;0.68;;;;;;;9.50;61.69;95720.03;5087694;28;20043;-77
2021/05/14 05:55:00;;;;;;;0.70;0.70;;;;;;;9.25;62.30;95728.09;5087825;28;20384;-76
2021/05/14 05:57:26;;;;;;;0.77;0.77;;;;;;;9.18;62.73;95733.44;5088171;28;20054;-76
2021/05/14 05:59:52;;;;;;;1.20;0.93;;;;;;;9.34;63.11;95738.00;5087930;28;20435;-76
2021/05/14 06:02:19;;;;;;;0.98;0.98;;;;;;;9.99;63.88;95735.44;5087647;28;20048;-76
2021/05/14 06:04:45;;;;;;;0.70;0.70;;;;;;;10.75;63.08;95738.72;5086851;28;20047;-76
2021/05/14 06:07:11;;;;;;;0.93;0.77;;;;;;;11.33;61.70;95726.28;5086249;28;20491;-76
2021/05/14 06:09:37;;;;;;;0.70;0.70;;;;;;;11.82;60.71;95715.13;5088416;28;20047;-76
2021/05/14 06:12:04;;;;;;;0.90;0.90;;;;;;;12.31;60.32;95709.97;5089888;28;20044;-76
2021/05/14 06:14:30;;;;;;;1.70;0.85;;;;;;;12.41;59.25;95709.25;5087052;28;20040;-76
2021/05/14 06:16:56;;;;;;;0.60;0.60;;;;;;;12.67;58.79;95699.78;5084863;28;20040;-76
2021/05/14 06:19:29;;;;;;;0.60;0.60;;;;;;;13.02;58.15;95694.03;5078347;28;20059;-76
2021/05/14 06:21:55;;;;;;;0.60;0.60;;;;;;;13.18;57.42;95694.94;5083223;28;20033;-76
2021/05/14 06:24:22;;;;;;;0.60;0.60;;;;;;;13.52;57.18;95689.38;5084353;28;20045;-76
2021/05/14 06:26:48;;;;;;;0.63;0.63;;;;;;;13.80;56.44;95683.75;5084263;28;20059;-76
2021/05/14 06:29:15;;;;;;;0.70;0.70;;;;;;;14.08;55.64;95683.59;5088910;28;20054;-77
2021/05/14 06:31:42;;;;;;;0.70;0.70;;;;;;;14.32;55.20;95678.66;5087407;28;20043;-78
2021/05/14 06:34:08;;;;;;;0.50;0.50;;;;;;;14.32;54.45;95666.28;5087112;28;20052;-77
2021/05/14 06:36:35;;;;;;;0.60;0.57;;;;;;;14.60;54.55;95672.94;5085374;28;20056;-77
2021/05/14 06:39:02;;;;;;;0.63;0.55;;;;;;;15.04;53.96;95663.72;5087642;28;20040;-77
2021/05/14 06:41:28;;;;;;;1.13;0.68;;;;;;;15.40;52.91;95650.47;5091412;28;20032;-77
2021/05/14 06:43:57;;;;;;;0.65;0.65;;;;;;;15.33;51.98;95647.28;5092538;28;20473;-77
2021/05/14 06:46:23;;;;;;;0.70;0.70;;;;;;;15.17;51.59;95647.31;5085049;28;20036;-77
2021/05/14 06:48:50;;;;;;;0.60;0.60;;;;;;;15.46;51.77;95654.69;5088327;28;20111;-77
2021/05/14 06:51:17;;;;;;;1.30;0.50;;;;;;;15.83;51.41;95650.88;5088396;28;20045;-77
2021/05/14 06:53:43;;;;;;;0.57;0.57;;;;;;;16.09;50.79;95650.78;5087394;28;20040;-77
2021/05/14 06:56:09;;;;;;;0.88;0.43;;;;;;;16.40;50.47;95646.91;5086649;28;20044;-77
2021/05/14 06:58:35;;;;;;;0.52;0.52;;;;;;;16.71;49.62;95640.59;5091711;28;20043;-77
2021/05/14 07:01:02;;;;;;;0.57;0.57;;;;;;;16.90;48.99;95630.94;5089873;28;20472;-77
2021/05/14 07:03:28;;;;;;;0.50;0.50;;;;;;;16.66;48.46;95636.16;5090836;28;20044;-77
2021/05/14 07:05:55;;;;;;;0.50;0.50;;;;;;;16.25;48.03;95636.41;5083798;28;20063;-77
2021/05/14 07:08:21;;;;;;;0.85;0.63;;;;;;;16.16;48.70;95641.47;5095912;28;20040;-77
2021/05/14 07:10:47;;;;;;;0.50;0.50;;;;;;;16.37;48.73;95651.94;5096010;28;20047;-77
2021/05/14 07:13:14;;;;;;;0.50;0.50;;;;;;;16.64;48.88;95648.88;5092533;28;20048;-77
2021/05/14 07:15:40;;;;;;;0.40;0.40;;;;;;;16.93;48.48;95656.09;5088009;28;20464;-77
2021/05/14 07:18:06;;;;;;;0.93;0.93;;;;;;;17.18;48.11;95666.47;5095603;28;20052;-76
2021/05/14 07:20:32;;;;;;;0.40;0.40;;;;;;;17.43;47.73;95660.16;5085715;28;20039;-77
2021/05/14 07:22:59;;;;;;;0.73;0.40;;;;;;;17.66;47.46;95663.09;5091922;28;20052;-76
2021/05/14 07:25:25;;;;;;;0.47;0.47;;;;;;;17.88;47.36;95664.47;5085221;28;20032;-76
2021/05/14 07:27:52;;;;;;;0.60;0.60;;;;;;;17.79;46.66;95665.06;5090309;28;20036;-76
2021/05/14 07:30:18;;;;;;;0.60;0.60;;;;;;;17.74;46.70;95669.63;5091279;28;20075;-76
2021/05/14 07:32:44;;;;;;;0.85;0.65;;;;;;;17.52;46.63;95668.28;5085053;28;20055;-76
2021/05/14 07:35:11;;;;;;;0.50;0.50;;;;;;;17.47;46.42;95670.97;5095491;28;20423;-76
2021/05/14 07:37:37;;;;;;;0.40;0.40;;;;;;;17.37;46.37;95671.09;5092118;28;20047;-76
2021/05/14 07:40:05;;;;;;;0.60;0.60;;;;;;;17.23;46.50;95668.28;5095221;28;20044;-76
2021/05/14 07:42:31;;;;;;;0.40;0.40;;;;;;;16.93;46.96;95672.78;5094509;28;20036;-76
2021/05/14 07:44:57;;;;;;;0.77;0.50;;;;;;;17.03;46.85;95679.88;5081077;28;20051;-76
2021/05/14 07:47:24;;;;;;;0.30;0.30;;;;;;;16.92;47.25;95679.13;5086945;28;20033;-76
2021/05/14 07:49:50;;;;;;;0.22;0.22;;;;;;;17.31;47.55;95672.19;5082489;28;20380;-76
2021/05/14 07:52:16;;;;;;;0.85;0.45;;;;;;;17.79;47.11;95675.69;5084700;28;20389;-76
2021/05/14 07:54:43;;;;;;;1.50;0.40;;;;;;;18.22;46.37;95669.63;5088652;28;20051;-76
2021/05/14 07:57:09;;;;;;;0.40;0.40;;;;;;;17.87;45.27;95669.00;5079668;28;20036;-76
2021/05/14 07:59:35;;;;;;;0.30;0.30;;;;;;;17.80;45.45;95671.94;5084264;28;20465;-76
2021/05/14 08:02:01;;;;;;;0.52;0.32;;;;;;;17.70;45.55;95677.38;5086403;28;20033;-76
2021/05/14 08:04:28;;;;;;;0.55;0.50;;;;;;;17.43;45.65;95669.97;5084859;28;20040;-76
2021/05/14 08:06:54;;;;;;;0.60;0.20;;;;;;;17.08;45.72;95679.03;5088436;28;20040;-76
2021/05/14 08:09:23;;;;;;;0.40;0.30;;;;;;;16.72;45.96;95676.63;5079080;28;20036;-76
2021/05/14 08:11:51;;;;;;;0.80;0.30;;;;;;;16.42;46.36;95681.84;5080003;28;20040;-76
2021/05/14 08:14:18;;;;;;;0.22;0.22;;;;;;;16.22;46.61;95692.50;5085151;28;20037;-76
2021/05/14 08:16:45;;;;;;;1.00;0.40;;;;;;;16.46;46.52;95687.34;5084707;28;20052;-76
2021/05/14 08:19:12;;;;;;;0.63;0.40;;;;;;;17.01;46.36;95677.47;5086727;28;20047;-76
2021/05/14 08:21:47;;;;;;;0.70;0.50;;;;;;;17.18;42.80;95650.59;5085385;28;20055;-76
2021/05/14 08:24:14;;;;;;;0.30;0.30;;;;;;;17.58;44.69;95666.38;5090288;28;20052;-76
2021/05/14 08:26:42;;;;;;;1.85;0.30;;;;;;;17.99;44.08;95671.22;5085354;28;20389;-76
2021/05/14 08:29:09;;;;;;;0.82;0.32;;;;;;;18.52;43.16;95657.00;5088884;28;20036;-76
2021/05/14 08:31:39;;;;;;;0.30;0.30;;;;;;;18.78;42.30;95660.88;5085308;28;20052;-76
2021/05/14 08:34:10;;;;;;;0.68;0.30;;;;;;;19.13;41.03;95648.13;5079091;28;20060;-76
2021/05/14 08:36:39;;;;;;;0.30;0.30;;;;;;;19.09;41.05;95696.81;5088474;28;20048;-76
2021/05/14 08:39:07;;;;;;;1.17;0.25;;;;;;;18.73;40.82;95699.97;5089400;28;20044;-76
2021/05/14 08:41:34;;;;;;;0.30;0.30;;;;;;;18.57;41.21;95694.13;5085491;28;20373;-76
2021/05/14 08:44:02;;;;;;;0.20;0.20;;;;;;;18.51;41.01;95695.25;5079953;28;20036;-76
2021/05/14 08:46:29;;;;;;;0.45;0.28;;;;;;;18.82;41.04;95699.09;5088148;28;20102;-76
2021/05/14 08:48:56;;;;;;;1.17;0.50;;;;;;;19.18;40.45;95700.41;5084762;28;20047;-76
2021/05/14 08:51:26;;;;;;;0.77;0.38;;;;;;;19.55;40.12;95699.50;5082400;28;20032;-75
2021/05/14 08:53:53;;;;;;;1.80;0.30;;;;;;;19.43;39.65;95694.66;5080782;28;20039;-75
2021/05/14 08:56:19;;;;;;;0.32;0.30;;;;;;;18.97;39.61;95697.28;5083929;28;20036;-76
2021/05/14 08:58:45;;;;;;;0.50;0.30;;;;;;;18.51;39.90;95704.00;5088233;28;20476;-75
2021/05/14 09:01:12;;;;;;;0.57;0.40;;;;;;;18.10;40.32;95711.69;5081909;28;20039;-75
2021/05/14 09:03:58;;;;;;;0.57;0.30;;;;;;;17.52;41.04;95726.59;5079327;28;20380;-76
2021/05/14 09:06:39;;;;;;;0.50;0.40;;;;;;;17.11;43.47;95731.44;5080457;28;20033;-76
2021/05/14 09:09:10;;;;;;;0.47;0.30;;;;;;;16.78;44.13;95731.91;5097112;28;20047;-76
2021/05/14 09:11:45;;;;;;;1.88;0.45;;;;;;;16.47;44.11;95733.16;5093632;28;20056;-76
2021/05/14 09:14:42;;;;;;;1.45;0.55;;;;;;;16.02;45.67;95755.00;5074889;28;20028;-76
2021/05/14 09:17:09;;;;;;;0.65;0.50;;;;;;;15.75;45.25;95741.34;5083097;28;20043;-76
2021/05/14 09:19:38;;;;;;;1.38;0.30;;;;;;;15.53;46.06;95744.25;5075695;28;20040;-76
2021/05/14 09:22:24;;;;;;;1.15;0.50;;;;;;;15.34;47.80;95759.84;5086713;28;20032;-76
2021/05/14 09:24:58;;;;;;;0.80;0.40;;;;;;;15.27;47.59;95751.41;5084302;28;20029;-75
2021/05/14 09:27:35;;;;;;;3.05;0.43;;;;;;;15.14;48.45;95761.44;5083808;28;20036;-76
2021/05/14 09:30:04;;;;;;;0.73;0.30;;;;;;;15.18;48.11;95745.84;5084950;28;20046;-76
2021/05/14 09:32:33;;;;;;;0.50;0.50;;;;;;;15.52;48.03;95747.97;5086697;28;20477;-75
2021/05/14 09:35:02;;;;;;;0.82;0.68;;;;;;;15.89;47.95;95742.34;5083530;28;20062;-76
2021/05/14 09:37:29;;;;;;;0.30;0.30;;;;;;;16.31;47.74;95727.13;5083645;28;20047;-76
2021/05/14 09:40:19;;;;;;;0.82;0.22;;;;;;;16.61;45.33;95705.81;5086267;28;20044;-76
2021/05/14 09:42:46;;;;;;;0.43;0.30;;;;;;;17.04;46.34;95714.00;5082343;28;20404;-76
2021/05/14 09:45:21;;;;;;;0.75;0.60;;;;;;;17.27;45.65;95710.91;5087562;28;20484;-76
2021/05/14 09:48:26;;;;;;;0.40;0.30;;;;;;;17.73;43.48;95681.31;5081674;28;20040;-76
2021/05/14 09:50:53;;;;;;;0.63;0.50;;;;;;;18.31;44.67;95697.13;5080503;28;20040;-76
2021/05/14 09:53:21;;;;;;;0.55;0.43;;;;;;;18.51;43.06;95701.34;5079960;28;20147;-76
2021/05/14 09:55:56;;;;;;;5.72;5.32;;;;;;;18.26;41.12;95699.81;5083178;28;20043;-76
2021/05/14 09:58:25;;;;;;;1.52;0.55;;;;;;;18.16;42.76;95700.72;5074159;28;20044;-76
2021/05/14 10:00:51;;;;;;;1.02;1.02;;;;;;;17.86;42.48;95696.56;5085450;28;20036;-76
2021/05/14 10:03:19;;;;;;;1.73;1.10;;;;;;;17.42;42.81;95698.31;5078788;28;20032;-76
2021/05/14 10:05:47;;;;;;;1.67;1.27;;;;;;;17.17;43.57;95707.28;5080276;28;20044;-76
2021/05/14 10:08:19;;;;;;;1.80;1.70;;;;;;;16.84;43.80;95704.34;5084984;28;20162;-76
2021/05/14 10:10:47;;;;;;;2.38;0.63;;;;;;;16.58;44.11;95706.34;5089672;28;20036;-76
2021/05/14 10:13:13;;;;;;;0.73;0.40;;;;;;;16.54;44.57;95702.66;5078274;28;20028;-76
2021/05/14 10:15:40;;;;;;;0.32;0.32;;;;;;;16.53;44.68;95701.09;5082191;28;20408;-76
2021/05/14 10:18:19;;;;;;;0.55;0.43;;;;;;;16.50;44.81;95708.78;5086713;28;20037;-76
2021/05/14 10:20:47;;;;;;;0.50;0.43;;;;;;;16.82;44.83;95703.84;5090195;28;20044;-76
2021/05/14 10:23:16;;;;;;;1.77;0.50;;;;;;;17.29;44.44;95698.97;5092214;28;20040;-76
2021/05/14 10:25:47;;;;;;;2.63;0.40;;;;;;;17.85;43.21;95684.41;5097114;28;20043;-76
2021/05/14 10:28:20;;;;;;;1.75;0.43;;;;;;;18.13;42.30;95672.13;5082883;28;20044;-76
2021/05/14 10:31:04;;;;;;;0.50;0.40;;;;;;;18.26;41.16;95667.97;5090225;28;20032;-76
2021/05/14 10:33:57;;;;;;;0.77;0.68;;;;;;;18.47;40.62;95668.47;5087991;28;20053;-76
2021/05/14 10:36:31;;;;;;;0.20;0.20;;;;;;;18.62;41.13;95672.78;5087308;28;20047;-76
2021/05/14 10:39:10;;;;;;;0.70;0.40;;;;;;;18.66;39.23;95671.13;5087068;28;20036;-76
2021/05/14 10:42:06;;;;;;;0.20;0.20;;;;;;;18.15;37.77;95667.31;5083183;28;20040;-76
2021/05/14 10:44:46;;;;;;;0.20;0.20;;;;;;;17.99;38.42;95666.69;5085518;28;20053;-76
2021/05/14 10:47:21;;;;;;;0.40;0.30;;;;;;;17.95;38.69;95664.91;5088041;28;20413;-75
2021/05/14 10:49:53;;;;;;;1.05;0.63;;;;;;;17.94;40.16;95669.44;5086806;28;20029;-76
2021/05/14 10:52:20;;;;;;;0.40;0.30;;;;;;;17.95;39.97;95672.88;5085804;28;20043;-76
2021/05/14 10:54:51;;;;;;;0.32;0.25;;;;;;;18.03;39.70;95675.69;5081092;28;20043;-76
2021/05/14 10:57:38;;;;;;;0.60;0.30;;;;;;;18.23;37.86;95665.91;5085379;28;20032;-76
2021/05/14 11:00:22;;;;;;;2.05;0.60;;;;;;;18.77;38.87;95666.44;5089258;28;20033;-76
2021/05/14 11:03:13;;;;;;;0.55;0.40;;;;;;;19.44;36.27;95655.53;5091090;28;20040;-76
2021/05/14 11:05:45;;;;;;;0.43;0.30;;;;;;;19.52;37.37;95668.16;5076194;28;20519;-75
2021/05/14 11:08:34;;;;;;;0.60;0.20;;;;;;;19.38;34.64;95656.72;5088762;28;20487;-76
2021/05/14 11:11:03;;;;;;;0.77;0.30;;;;;;;19.29;36.51;95667.25;5085193;28;20044;-76
2021/05/14 11:13:37;;;;;;;0.35;0.30;;;;;;;18.95;33.10;95652.38;5084077;28;20039;-76
2021/05/14 11:16:41;;;;;;;1.03;0.30;;;;;;;18.66;35.09;95655.97;5085954;28;20491;-76
2021/05/14 11:19:27;;;;;;;0.43;0.22;;;;;;;18.50;36.51;95667.13;5073306;28;20632;-76
2021/05/14 11:22:12;;;;;;;0.32;0.30;;;;;;;18.41;36.48;95657.13;5084732;28;20405;-76
2021/05/14 11:24:48;;;;;;;0.30;0.30;;;;;;;18.05;36.83;95648.88;5088843;28;20044;-76
2021/05/14 11:27:29;;;;;;;0.40;0.30;;;;;;;17.68;38.62;95676.06;5076491;28;20036;-76
2021/05/14 11:29:59;;;;;;;0.30;0.20;;;;;;;17.76;37.95;95672.78;5085233;28;20044;-76
2021/05/14 11:32:38;;;;;;;0.52;0.30;;;;;;;17.94;38.83;95666.78;5086694;28;20032;-76
2021/05/14 11:35:07;;;;;;;0.20;0.20;;;;;;;18.16;38.80;95658.25;5095141;28;20060;-76
2021/05/14 11:37:56;;;;;;;0.32;0.30;;;;;;;18.20;38.50;95658.50;5086866;28;20475;-76
2021/05/14 11:40:36;;;;;;;0.82;0.22;;;;;;;18.45;39.05;95665.31;5080853;28;20036;-75
2021/05/14 11:43:06;;;;;;;0.20;0.20;;;;;;;18.76;38.09;95663.00;5086261;28;20048;-76
2021/05/14 11:45:36;;;;;;;0.20;0.20;;;;;;;18.97;37.87;95655.53;5086510;28;20032;-76
2021/05/14 11:48:13;;;;;;;0.40;0.30;;;;;;;19.28;37.85;95655.03;5089962;28;20044;-76